Airfield :
LOGIN :

Register | Disclaimer

   EN    FR    IT 

 










Legend :    VFR   Marginal VFR   IFR   Intensive IFR   Very Intensive IFR
Visi :
Ceiling :
>= 8 km
>= 3000ft
5 to 8 km
1000 to 3000 ft
1500m to 5 km
500 to 1000 ft
800 to 1500m
200 to 500 ft
< 800m
< 200 ft
Symbols :   Thunderstorms  Fog  Heavy snow  Heavy precipitations  Wind > 20 kt
SIGMETs :     Misc.  Thunderstorms  Icing  Turbulence  Mountain Waves  Volcanic Ashes






- Airport Elevation : 124 ft
- IATA code : RNS


LFRN - Rennes

CURRENT METAR :
  • 021700Z AUTO 23004KT 9999 SCT034/// BKN043/// OVC064/// ///CB 18/14 Q1015 TEMPO 4000 SHRA

EXPIRED METARs :
  • 021630Z AUTO VRB03KT 9999 ///TCU 19/15 Q1015 TEMPO 4000 SHRA
  • 021600Z AUTO 25003KT 210V360 CAVOK 20/14 Q1015 TEMPO 4000 SHRA BKN015TCU
  • 021530Z AUTO 32004KT 290V010 CAVOK 19/15 Q1015 TEMPO 4000 SHRA BKN015TCU
  • 021500Z AUTO 35005KT 310V030 9999 FEW038 SCT048 BKN066 19/15 Q1016 TEMPO 4000 SHRA BKN015TCU
  • 021430Z AUTO 34008KT 9999 BKN031 BKN038 BKN078 19/15 Q1016 TEMPO 4000 SHRA BKN015TCU

TAF AMD TAF LFRN
Valid from the 02 at 12:00 until the 03 at 12:00 UTC


021255Z 0212/0312 VRB05KT 9999 BKN025
TEMPO 0212/0221 4000 SHRA BKN015TCU
PROB30
TEMPO 0303/0308 BKN007
TEMPO 0310/0312 4000 SHRA BKN020TCU
ATIS : +33 2 99 67 72 50



MET'MAP, your aeronautical weather chart ! - Copyright ORBIFLY December 2007 - Disclaimer

ORBIFLY MET'MAP TEAM :

Programming & Development : Alexandra Zaïnal
Concept & original design : Baudouin d'Aumeries
Assistance for programming : Marc-Olivier Méhu
Technical & hardware support : Manuel Goepfert

Contact : metmap@orbifly.com




SOURCES & CREDITS :

   NOAA